Time;durP1;ratioP1;P1;durP2;ratioP2;P2;SDS_P1;SDS_P2;PMS_P1;PMS_P2;Temp;Humidity;BMP_temperature;BMP_pressure;BME280_temperature;BME280_humidity;BME280_pressure;Samples;Min_cycle;Max_cycle;Signal;HPM_P1;HPM_P2
2021/11/30 00:01:17;;;;;;;10.93;4.38;;;6.10;73.20;;;;;;5105169;28;20187;-85
2021/11/30 00:03:43;;;;;;;5.37;3.73;;;6.10;73.00;;;;;;5096838;28;20199;-85
2021/11/30 00:06:10;;;;;;;9.03;3.73;;;6.10;72.80;;;;;;5078263;28;20280;-85
2021/11/30 00:08:37;;;;;;;10.18;4.70;;;6.20;72.20;;;;;;5090864;28;20429;-84
2021/11/30 00:11:05;;;;;;;15.82;4.15;;;6.20;71.80;;;;;;5073339;28;20241;-85
2021/11/30 00:13:32;;;;;;;5.32;3.25;;;6.10;71.80;;;;;;5088435;28;20179;-86
2021/11/30 00:15:59;;;;;;;11.02;4.40;;;6.00;71.50;;;;;;5081030;28;20238;-85
2021/11/30 00:18:26;;;;;;;5.28;3.60;;;6.10;71.50;;;;;;5101965;28;20180;-85
2021/11/30 00:20:52;;;;;;;4.60;2.95;;;6.20;71.30;;;;;;5078201;28;20206;-85
2021/11/30 00:23:19;;;;;;;5.38;3.60;;;6.20;71.20;;;;;;5077968;28;20172;-85
2021/11/30 00:25:45;;;;;;;5.25;3.60;;;6.20;71.00;;;;;;5096452;28;20204;-85
2021/11/30 00:28:11;;;;;;;8.07;4.43;;;6.10;70.90;;;;;;5096196;28;20180;-85
2021/11/30 00:30:38;;;;;;;8.93;3.35;;;6.00;71.00;;;;;;5078744;28;20184;-85
2021/11/30 00:33:05;;;;;;;7.53;4.25;;;6.10;71.30;;;;;;5079254;28;20651;-85
2021/11/30 00:35:31;;;;;;;6.55;4.00;;;6.10;71.20;;;;;;5083961;28;20619;-85
2021/11/30 00:37:58;;;;;;;7.55;4.07;;;6.10;71.40;;;;;;5077500;28;20206;-85
2021/11/30 00:40:25;;;;;;;9.00;4.10;;;6.00;71.40;;;;;;5095818;28;20266;-85
2021/11/30 00:42:51;;;;;;;6.78;3.83;;;5.90;71.60;;;;;;5077380;28;20176;-86
2021/11/30 00:45:19;;;;;;;5.33;2.77;;;6.00;71.70;;;;;;5077120;28;20214;-86
2021/11/30 00:47:57;;;;;;;7.43;4.03;;;5.90;72.00;;;;;;5094877;28;20521;-85
2021/11/30 00:50:25;;;;;;;7.15;3.60;;;5.80;72.40;;;;;;5098054;28;20220;-86
2021/11/30 00:52:53;;;;;;;6.18;3.20;;;5.90;73.30;;;;;;5091358;28;20222;-85
2021/11/30 00:55:19;;;;;;;7.20;3.38;;;5.90;73.50;;;;;;5077015;28;20507;-85
2021/11/30 00:57:45;;;;;;;6.00;4.00;;;6.00;73.80;;;;;;5084094;28;20236;-86
2021/11/30 01:00:19;;;;;;;4.10;3.22;;;5.90;74.00;;;;;;5081121;28;20192;-87
2021/11/30 01:02:46;;;;;;;6.68;3.35;;;5.80;74.20;;;;;;5083959;28;20526;-86
2021/11/30 01:05:14;;;;;;;9.90;4.30;;;5.90;75.00;;;;;;5079964;28;20204;-86
2021/11/30 01:07:40;;;;;;;10.55;4.00;;;6.00;75.50;;;;;;5077912;28;20187;-84
2021/11/30 01:10:10;;;;;;;8.37;2.97;;;5.90;75.70;;;;;;5093194;28;20171;-85
2021/11/30 01:12:36;;;;;;;11.77;4.15;;;5.90;76.00;;;;;;5074945;28;20179;-84
2021/11/30 01:15:07;;;;;;;4.10;3.27;;;5.90;76.10;;;;;;5076826;28;20211;-85
2021/11/30 01:17:33;;;;;;;4.10;3.22;;;5.80;76.60;;;;;;5103342;28;20521;-85
2021/11/30 01:19:59;;;;;;;10.77;3.80;;;5.80;77.00;;;;;;5076018;28;20192;-85
2021/11/30 01:22:24;;;;;;;5.10;3.47;;;5.90;77.40;;;;;;5077498;28;20513;-85
2021/11/30 01:24:50;;;;;;;5.10;3.07;;;6.00;77.50;;;;;;5102820;28;20385;-86
2021/11/30 01:27:16;;;;;;;4.97;3.60;;;5.80;77.50;;;;;;5095005;28;20183;-86
2021/11/30 01:29:42;;;;;;;8.87;3.87;;;5.80;77.90;;;;;;5102602;28;20194;-86
2021/11/30 01:32:08;;;;;;;10.40;3.80;;;5.80;78.30;;;;;;5083322;28;20175;-86
2021/11/30 01:34:34;;;;;;;5.00;3.53;;;6.00;78.60;;;;;;5085487;28;20446;-87
2021/11/30 01:37:00;;;;;;;6.23;3.70;;;6.10;78.60;;;;;;5076539;28;20192;-85
2021/11/30 01:39:26;;;;;;;7.55;4.10;;;6.00;78.50;;;;;;5095512;28;20778;-86
2021/11/30 01:41:52;;;;;;;5.93;3.63;;;6.10;78.80;;;;;;5077222;28;20266;-85
2021/11/30 01:44:55;;;;;;;4.50;3.58;;;6.10;79.10;;;;;;5076020;28;20604;-86
2021/11/30 01:49:55;;;;;;;5.53;3.75;;;6.10;79.40;;;;;;5096908;28;20212;-85
2021/11/30 01:52:21;;;;;;;4.65;3.28;;;6.00;79.60;;;;;;5109527;28;20180;-85
2021/11/30 01:54:48;;;;;;;5.60;4.07;;;6.00;80.00;;;;;;5093750;28;20200;-85
2021/11/30 01:57:16;;;;;;;3.60;3.22;;;6.10;80.30;;;;;;5088220;28;20188;-85
2021/11/30 01:59:42;;;;;;;7.97;3.30;;;6.10;80.40;;;;;;5080099;28;20187;-86
2021/11/30 02:02:08;;;;;;;7.82;4.30;;;6.20;80.60;;;;;;5084182;28;20202;-85
2021/11/30 02:04:36;;;;;;;5.90;3.47;;;6.20;80.60;;;;;;5097287;28;20218;-86
2021/11/30 02:07:02;;;;;;;4.47;3.40;;;6.10;81.00;;;;;;5097980;28;20182;-85
2021/11/30 02:09:28;;;;;;;8.98;4.20;;;6.10;81.30;;;;;;5100129;28;20183;-85
2021/11/30 02:11:54;;;;;;;11.98;4.65;;;6.10;81.50;;;;;;5097578;28;20184;-85
2021/11/30 02:14:20;;;;;;;6.43;3.93;;;6.00;81.70;;;;;;5101912;28;20267;-84
2021/11/30 02:16:46;;;;;;;4.25;3.50;;;6.10;82.10;;;;;;5100954;28;20214;-87
2021/11/30 02:19:13;;;;;;;9.23;3.88;;;6.20;82.10;;;;;;5098088;28;20175;-85
2021/11/30 02:21:40;;;;;;;7.93;4.00;;;6.20;82.10;;;;;;5078267;28;20184;-85
2021/11/30 02:24:07;;;;;;;12.27;4.82;;;6.00;82.00;;;;;;5075915;28;20242;-85
2021/11/30 02:26:35;;;;;;;9.18;3.90;;;6.20;82.10;;;;;;5083175;28;20156;-85
2021/11/30 02:29:05;;;;;;;7.90;4.07;;;6.30;82.00;;;;;;5077182;28;20180;-86
2021/11/30 02:31:37;;;;;;;6.68;3.70;;;6.30;81.80;;;;;;5094898;28;20179;-85
2021/11/30 02:34:04;;;;;;;6.22;4.30;;;6.30;81.70;;;;;;5077676;28;20204;-86
2021/11/30 02:39:13;;;;;;;9.40;3.85;;;6.30;81.70;;;;;;5112681;28;20210;-87
2021/11/30 02:41:39;;;;;;;6.47;3.17;;;6.40;81.50;;;;;;5096511;28;20160;-86
2021/11/30 02:44:07;;;;;;;9.25;4.07;;;6.40;81.40;;;;;;5090903;28;20202;-87
2021/11/30 02:46:39;;;;;;;13.98;3.85;;;6.30;81.60;;;;;;5107571;28;20168;-86
2021/11/30 02:49:08;;;;;;;6.28;3.58;;;6.20;81.80;;;;;;5100238;28;20210;-86
2021/11/30 02:51:35;;;;;;;6.53;3.80;;;6.40;82.00;;;;;;5086605;28;20179;-86
2021/11/30 02:54:05;;;;;;;6.38;3.70;;;6.40;82.00;;;;;;5093050;28;20203;-86
2021/11/30 02:56:38;;;;;;;4.72;3.35;;;6.30;82.40;;;;;;5091768;28;20561;-85
2021/11/30 02:59:04;;;;;;;7.50;3.47;;;6.40;82.60;;;;;;5084285;28;20262;-85
2021/11/30 03:01:30;;;;;;;4.37;3.97;;;6.40;82.70;;;;;;5083473;28;20252;-84
2021/11/30 03:03:55;;;;;;;9.07;4.63;;;6.30;82.80;;;;;;5093342;28;20191;-86
2021/11/30 03:06:21;;;;;;;8.07;4.03;;;6.30;83.20;;;;;;5075489;28;20612;-85
2021/11/30 03:08:47;;;;;;;6.90;4.03;;;6.30;83.30;;;;;;5075030;28;20176;-85
2021/11/30 03:11:13;;;;;;;5.43;3.50;;;6.40;83.40;;;;;;5076118;28;20171;-86
2021/11/30 03:13:39;;;;;;;5.32;4.10;;;6.40;83.50;;;;;;5096753;28;20259;-85
2021/11/30 03:16:04;;;;;;;7.83;4.50;;;6.50;83.60;;;;;;5079509;28;20340;-85
2021/11/30 03:18:31;;;;;;;7.63;5.23;;;6.50;83.70;;;;;;5096963;28;20440;-85
2021/11/30 03:20:57;;;;;;;8.60;3.80;;;6.40;83.90;;;;;;5079754;28;20426;-85
2021/11/30 03:23:23;;;;;;;6.03;4.13;;;6.40;84.30;;;;;;5080169;28;20218;-85
2021/11/30 03:25:48;;;;;;;7.53;4.37;;;6.40;84.70;;;;;;5086786;28;20207;-86
2021/11/30 03:28:14;;;;;;;7.53;5.13;;;6.40;85.00;;;;;;5103170;28;20200;-83
2021/11/30 03:30:52;;;;;;;7.47;4.63;;;6.50;85.40;;;;;;5104405;28;20421;-84
2021/11/30 03:36:02;;;;;;;7.40;5.57;;;6.40;86.10;;;;;;5101285;28;20178;-86
2021/11/30 03:38:29;;;;;;;9.00;5.40;;;6.40;86.60;;;;;;5090532;28;20544;-86
2021/11/30 03:40:55;;;;;;;15.88;6.20;;;6.40;86.90;;;;;;5079187;28;20432;-86
2021/11/30 03:43:21;;;;;;;13.37;6.80;;;6.40;87.30;;;;;;5078117;28;20180;-87
2021/11/30 03:45:47;;;;;;;11.13;7.00;;;6.50;87.60;;;;;;5078329;28;20906;-87
2021/11/30 03:48:13;;;;;;;8.97;6.30;;;6.50;87.80;;;;;;5078519;28;20421;-86
2021/11/30 03:50:38;;;;;;;11.88;7.25;;;6.60;88.00;;;;;;5096476;28;20508;-87
2021/11/30 03:53:04;;;;;;;8.03;6.87;;;6.50;88.30;;;;;;5061393;28;20719;-86
2021/11/30 03:55:30;;;;;;;10.63;7.03;;;6.60;88.50;;;;;;5078467;28;20210;-86
2021/11/30 03:57:56;;;;;;;9.80;7.30;;;6.50;88.80;;;;;;5086159;28;20194;-86
2021/11/30 04:00:21;;;;;;;13.70;8.40;;;6.70;89.00;;;;;;5093324;28;20801;-87
2021/11/30 04:02:47;;;;;;;11.57;8.70;;;6.80;89.00;;;;;;5079021;28;20241;-86
2021/11/30 04:05:13;;;;;;;13.97;7.60;;;6.80;89.00;;;;;;5079543;28;20619;-86
2021/11/30 04:07:39;;;;;;;11.13;8.90;;;6.90;89.10;;;;;;5089246;28;20944;-86
2021/11/30 04:10:05;;;;;;;16.07;7.97;;;6.90;89.00;;;;;;5096883;28;20180;-86
2021/11/30 04:12:31;;;;;;;17.38;9.48;;;6.80;89.10;;;;;;5079185;28;20179;-86
2021/11/30 04:14:56;;;;;;;15.23;10.80;;;6.90;89.30;;;;;;5079908;28;20218;-86
2021/11/30 04:17:23;;;;;;;14.23;8.67;;;6.90;89.40;;;;;;5086752;28;20549;-86
2021/11/30 04:19:49;;;;;;;12.98;9.05;;;6.90;89.40;;;;;;5098979;28;20238;-85
2021/11/30 04:22:14;;;;;;;14.77;9.80;;;6.80;89.50;;;;;;5078847;28;20176;-86
2021/11/30 04:24:41;;;;;;;22.13;10.30;;;6.80;89.80;;;;;;5096235;28;20208;-86
2021/11/30 04:27:07;;;;;;;15.93;10.10;;;6.70;90.10;;;;;;5086035;28;20190;-86
2021/11/30 04:29:36;;;;;;;19.85;11.52;;;6.80;91.10;;;;;;5086861;28;20556;-86
2021/11/30 04:32:02;;;;;;;28.67;11.57;;;6.80;90.50;;;;;;5096269;28;20207;-85
2021/11/30 04:34:27;;;;;;;16.30;11.65;;;6.80;90.70;;;;;;5077279;28;20257;-85
2021/11/30 04:36:53;;;;;;;18.47;11.47;;;6.80;90.80;;;;;;5078254;28;20184;-85
2021/11/30 04:39:19;;;;;;;18.27;10.07;;;6.90;91.00;;;;;;5077670;28;20430;-85
2021/11/30 04:41:45;;;;;;;17.20;10.00;;;6.80;91.00;;;;;;5104182;28;20421;-86
2021/11/30 04:44:11;;;;;;;19.20;11.40;;;6.90;91.10;;;;;;5077039;28;20759;-87
2021/11/30 04:46:41;;;;;;;18.77;11.63;;;7.10;91.20;;;;;;5095758;28;20685;-86
2021/11/30 04:49:17;;;;;;;18.58;11.57;;;7.00;90.90;;;;;;5084273;28;20232;-85
2021/11/30 04:51:43;;;;;;;20.90;11.15;;;7.00;91.10;;;;;;5100550;28;20168;-86
2021/11/30 04:54:08;;;;;;;17.90;11.30;;;7.00;91.90;;;;;;5095086;28;20227;-86
2021/11/30 04:56:35;;;;;;;14.90;11.00;;;7.10;91.90;;;;;;5077423;28;20422;-87
2021/11/30 04:59:00;;;;;;;22.35;12.70;;;7.10;91.30;;;;;;5077709;28;20426;-86
2021/11/30 05:01:26;;;;;;;19.03;11.83;;;7.10;91.40;;;;;;5076752;28;20184;-86
2021/11/30 05:03:52;;;;;;;17.60;11.10;;;7.10;91.50;;;;;;5077428;28;20227;-86
2021/11/30 05:06:18;;;;;;;21.92;12.82;;;7.10;91.70;;;;;;5100043;28;20200;-86
2021/11/30 05:08:43;;;;;;;18.30;10.50;;;7.10;91.70;;;;;;5100774;28;20701;-86
2021/11/30 05:11:09;;;;;;;20.93;11.97;;;7.20;91.70;;;;;;5079093;28;20176;-88
2021/11/30 05:13:35;;;;;;;21.30;12.35;;;7.30;91.80;;;;;;5076763;28;20206;-86
2021/11/30 05:16:02;;;;;;;16.08;11.20;;;7.20;91.70;;;;;;5085306;28;20199;-87
2021/11/30 05:18:27;;;;;;;21.63;12.18;;;7.30;91.90;;;;;;5084909;28;20176;-86
2021/11/30 05:20:54;;;;;;;25.13;9.57;;;7.20;92.00;;;;;;5077436;28;20554;-85
2021/11/30 05:23:30;;;;;;;16.90;9.55;;;7.20;92.20;;;;;;5076896;28;20191;-86
2021/11/30 05:26:01;;;;;;;16.10;9.85;;;7.20;92.30;;;;;;5078138;28;20199;-86
2021/11/30 05:28:27;;;;;;;16.27;9.50;;;7.30;92.50;;;;;;5077074;28;20175;-86
2021/11/30 05:30:53;;;;;;;15.18;10.43;;;7.30;92.60;;;;;;5083206;28;20182;-86
2021/11/30 05:33:19;;;;;;;17.43;10.90;;;7.40;92.60;;;;;;5078156;28;20191;-86
2021/11/30 05:35:45;;;;;;;13.50;8.83;;;7.40;92.70;;;;;;5097183;28;20465;-86
2021/11/30 05:38:11;;;;;;;19.73;10.20;;;7.50;92.70;;;;;;5116938;28;20175;-86
2021/11/30 05:40:40;;;;;;;16.47;9.20;;;7.50;92.60;;;;;;5122876;28;20413;-85
2021/11/30 05:43:05;;;;;;;16.08;9.65;;;7.50;92.60;;;;;;5112120;28;20433;-86
2021/11/30 05:45:31;;;;;;;17.90;11.23;;;7.50;92.70;;;;;;5108930;28;20311;-86
2021/11/30 05:47:57;;;;;;;19.57;10.97;;;7.50;92.80;;;;;;5101366;28;20184;-85
2021/11/30 05:50:23;;;;;;;15.60;9.40;;;7.50;93.00;;;;;;5092391;28;20214;-86
2021/11/30 05:52:49;;;;;;;15.20;9.80;;;7.50;93.10;;;;;;5085252;28;20455;-87
2021/11/30 05:55:15;;;;;;;20.50;12.10;;;7.50;93.10;;;;;;5077573;28;20203;-85
2021/11/30 05:57:42;;;;;;;15.65;11.05;;;7.60;93.20;;;;;;5095407;28;20716;-86
2021/11/30 06:00:10;;;;;;;18.15;10.13;;;7.60;93.20;;;;;;5084829;28;20184;-86
2021/11/30 06:05:21;;;;;;;16.90;11.00;;;7.60;93.40;;;;;;5095369;28;20282;-87
2021/11/30 06:07:48;;;;;;;19.75;11.35;;;7.60;93.60;;;;;;5093585;28;20203;-85
2021/11/30 06:10:14;;;;;;;16.08;9.73;;;7.60;93.60;;;;;;5076686;28;20179;-85
2021/11/30 06:12:39;;;;;;;20.35;12.02;;;7.60;93.70;;;;;;5076834;28;20228;-85
2021/11/30 06:15:06;;;;;;;16.80;10.67;;;7.60;94.50;;;;;;5082151;28;20215;-85
2021/11/30 06:17:32;;;;;;;16.15;9.88;;;7.70;93.80;;;;;;5085856;28;20244;-85
2021/11/30 06:19:58;;;;;;;15.90;10.00;;;7.70;93.80;;;;;;5075922;28;20191;-84
2021/11/30 06:22:24;;;;;;;20.80;11.07;;;7.80;93.80;;;;;;5094300;28;20434;-84
2021/11/30 06:24:49;;;;;;;16.30;10.50;;;7.80;93.80;;;;;;5079524;28;20202;-86
2021/11/30 06:27:15;;;;;;;21.53;11.37;;;7.80;93.70;;;;;;5084885;28;20183;-88
2021/11/30 06:29:41;;;;;;;20.33;10.83;;;7.80;93.70;;;;;;5094499;28;20186;-88
2021/11/30 06:32:07;;;;;;;17.52;11.35;;;7.90;93.80;;;;;;5084327;28;20180;-87
2021/11/30 06:34:33;;;;;;;17.52;10.80;;;7.90;93.80;;;;;;5058989;28;20575;-86
2021/11/30 06:36:59;;;;;;;17.07;9.77;;;8.00;93.70;;;;;;5060054;28;20180;-85
2021/11/30 06:39:25;;;;;;;14.20;9.13;;;7.90;93.60;;;;;;5076791;28;20206;-85
2021/11/30 06:41:51;;;;;;;15.70;9.50;;;7.90;93.50;;;;;;5088482;28;20197;-82
2021/11/30 06:44:18;;;;;;;15.67;10.10;;;7.90;93.60;;;;;;5079936;28;20295;-82
2021/11/30 06:46:43;;;;;;;17.45;11.18;;;7.90;93.70;;;;;;5082970;28;20175;-83
2021/11/30 06:49:09;;;;;;;13.47;9.23;;;7.90;93.70;;;;;;5094112;28;20225;-82
2021/11/30 06:51:34;;;;;;;17.10;10.27;;;7.90;93.80;;;;;;5085245;28;20193;-83
2021/11/30 06:54:00;;;;;;;16.53;10.67;;;7.90;93.80;;;;;;5111649;28;20203;-82
2021/11/30 06:56:27;;;;;;;21.43;10.33;;;8.00;93.80;;;;;;5114061;28;20184;-82
2021/11/30 06:58:54;;;;;;;15.68;10.05;;;8.00;93.70;;;;;;5114751;28;20179;-83
2021/11/30 07:01:19;;;;;;;15.65;11.02;;;8.00;93.70;;;;;;5096338;28;20274;-82
2021/11/30 07:03:47;;;;;;;18.30;10.63;;;8.00;93.70;;;;;;5098099;28;20203;-82
2021/11/30 07:06:27;;;;;;;17.88;10.45;;;8.00;93.80;;;;;;5113502;28;20208;-82
2021/11/30 07:14:13;;;;;;;16.80;9.90;;;8.10;93.90;;;;;;5107919;28;20304;-82
2021/11/30 07:16:39;;;;;;;17.65;10.13;;;8.10;93.90;;;;;;5069813;28;20180;-81
2021/11/30 07:19:05;;;;;;;21.87;13.93;;;8.20;93.90;;;;;;5083985;28;20191;-81
2021/11/30 07:21:32;;;;;;;22.85;12.95;;;8.20;93.70;;;;;;5085416;28;20176;-82
2021/11/30 07:23:58;;;;;;;22.27;12.68;;;8.20;93.80;;;;;;5088938;28;20195;-82
2021/11/30 07:26:25;;;;;;;21.98;13.68;;;8.20;93.70;;;;;;5112634;28;20199;-82
2021/11/30 07:28:51;;;;;;;26.42;13.13;;;8.30;93.80;;;;;;5130093;28;20650;-83
2021/11/30 07:31:17;;;;;;;23.27;12.20;;;8.30;93.80;;;;;;5127127;28;20194;-81
2021/11/30 07:33:47;;;;;;;19.33;12.63;;;8.30;93.80;;;;;;5125477;28;20940;-82
2021/11/30 07:36:15;;;;;;;27.80;14.88;;;8.30;93.80;;;;;;5113036;28;20550;-82
2021/11/30 07:38:42;;;;;;;27.35;14.45;;;8.20;93.80;;;;;;5085175;28;20179;-82
2021/11/30 07:41:09;;;;;;;28.42;15.57;;;8.30;94.00;;;;;;5116922;28;20236;-80
2021/11/30 07:43:36;;;;;;;27.88;16.15;;;8.20;93.90;;;;;;5092564;28;20184;-80
2021/11/30 07:46:02;;;;;;;27.88;16.92;;;8.30;94.10;;;;;;5115411;28;20685;-81
2021/11/30 07:48:28;;;;;;;27.25;14.55;;;8.30;94.10;;;;;;5097006;28;20511;-80
2021/11/30 07:50:56;;;;;;;27.87;15.43;;;8.30;94.20;;;;;;5098262;28;20174;-81
2021/11/30 07:53:22;;;;;;;27.02;15.65;;;8.30;94.20;;;;;;5114828;28;20417;-81
2021/11/30 07:55:49;;;;;;;26.83;13.50;;;8.30;94.30;;;;;;5096372;28;20188;-79
2021/11/30 07:58:15;;;;;;;34.78;16.63;;;8.40;94.30;;;;;;5103257;28;20243;-80
2021/11/30 08:00:41;;;;;;;25.83;15.27;;;8.40;94.30;;;;;;5085788;28;20211;-81
2021/11/30 08:03:07;;;;;;;35.22;16.38;;;8.60;94.30;;;;;;5086754;28;20430;-81
2021/11/30 08:05:33;;;;;;;24.50;14.60;;;8.50;94.20;;;;;;5104811;28;20218;-82
2021/11/30 08:07:59;;;;;;;29.08;14.57;;;8.50;94.20;;;;;;5101697;28;20172;-81
2021/11/30 08:10:27;;;;;;;27.52;13.60;;;8.50;94.10;;;;;;5082914;28;20186;-82
2021/11/30 08:12:53;;;;;;;25.23;14.02;;;8.60;94.10;;;;;;5083894;28;20687;-83
2021/11/30 08:15:20;;;;;;;31.17;14.00;;;8.60;94.00;;;;;;5084262;28;20314;-83
2021/11/30 08:17:46;;;;;;;24.80;14.10;;;8.60;94.00;;;;;;5084711;28;20182;-83
2021/11/30 08:20:12;;;;;;;26.42;12.60;;;8.60;94.00;;;;;;5086448;28;20187;-83
2021/11/30 08:22:40;;;;;;;27.25;15.48;;;8.60;94.00;;;;;;5088153;28;20510;-82
2021/11/30 08:25:07;;;;;;;21.17;12.30;;;8.70;94.20;;;;;;5105811;28;20286;-82
2021/11/30 08:27:33;;;;;;;30.10;14.40;;;8.70;94.10;;;;;;5088954;28;20172;-83
2021/11/30 08:29:59;;;;;;;26.73;14.10;;;8.80;94.00;;;;;;5093495;28;20191;-81
2021/11/30 08:32:25;;;;;;;30.45;14.70;;;8.80;93.90;;;;;;5099526;28;20243;-83
2021/11/30 08:34:52;;;;;;;27.17;15.30;;;8.80;93.80;;;;;;5117546;28;20199;-83
2021/11/30 08:37:19;;;;;;;34.60;17.08;;;8.90;93.80;;;;;;5099873;28;20198;-83
2021/11/30 08:39:48;;;;;;;32.53;15.30;;;8.80;93.60;;;;;;5116846;28;20179;-83
2021/11/30 08:42:15;;;;;;;30.05;17.42;;;8.90;93.70;;;;;;5102297;28;20172;-83
2021/11/30 08:44:40;;;;;;;32.45;17.48;;;8.90;93.70;;;;;;5101156;28;20208;-83
2021/11/30 08:47:10;;;;;;;34.10;16.10;;;8.80;93.60;;;;;;5101797;28;20512;-81
2021/11/30 08:49:37;;;;;;;39.10;16.13;;;9.00;93.60;;;;;;5084304;28;20233;-80
2021/11/30 08:52:05;;;;;;;47.35;18.13;;;8.90;93.60;;;;;;5103275;28;20172;-81
2021/11/30 08:54:30;;;;;;;36.88;18.92;;;8.90;93.60;;;;;;5083329;28;20247;-81
2021/11/30 08:56:58;;;;;;;50.80;19.60;;;9.00;93.60;;;;;;5101157;28;20187;-81
2021/11/30 08:59:24;;;;;;;42.47;20.63;;;8.90;93.60;;;;;;5103588;28;20445;-81
2021/11/30 09:01:51;;;;;;;37.08;19.92;;;9.00;93.60;;;;;;5122369;28;20199;-80
2021/11/30 09:04:17;;;;;;;50.25;21.80;;;9.10;93.70;;;;;;5111694;28;20558;-81
2021/11/30 09:06:43;;;;;;;42.67;19.25;;;9.10;93.70;;;;;;5107838;28;20255;-81
2021/11/30 09:09:11;;;;;;;45.17;19.90;;;9.10;93.70;;;;;;5108256;28;20545;-81
2021/11/30 09:11:37;;;;;;;43.33;21.33;;;9.10;93.60;;;;;;5090937;28;20406;-82
2021/11/30 09:14:04;;;;;;;50.00;22.60;;;9.10;93.70;;;;;;5092927;28;20196;-83
2021/11/30 09:16:30;;;;;;;46.72;21.65;;;9.20;93.60;;;;;;5111028;28;20179;-82
2021/11/30 09:18:56;;;;;;;54.50;20.73;;;9.20;93.40;;;;;;5092590;28;20226;-82
2021/11/30 09:21:23;;;;;;;47.03;22.10;;;9.20;93.40;;;;;;5086175;28;20172;-82
2021/11/30 09:23:50;;;;;;;51.72;23.63;;;9.20;93.40;;;;;;5099182;28;20433;-82
2021/11/30 09:26:15;;;;;;;54.28;22.52;;;9.20;93.30;;;;;;5099595;28;20551;-82
2021/11/30 09:28:41;;;;;;;57.00;23.77;;;9.20;93.30;;;;;;5081030;28;20329;-81
2021/11/30 09:31:07;;;;;;;62.23;24.30;;;9.30;93.40;;;;;;5080602;28;20461;-81
2021/11/30 09:33:33;;;;;;;61.15;25.38;;;9.20;93.40;;;;;;5080343;28;20422;-80
2021/11/30 09:35:59;;;;;;;55.60;25.40;;;9.20;93.30;;;;;;5099384;28;20184;-83
2021/11/30 09:38:27;;;;;;;56.83;23.58;;;9.20;93.40;;;;;;5081607;28;20252;-83
2021/11/30 09:40:58;;;;;;;42.58;22.60;;;9.30;93.40;;;;;;5081059;28;20631;-81
2021/11/30 09:43:25;;;;;;;43.20;21.38;;;9.20;93.30;;;;;;5080102;28;20183;-81
2021/11/30 09:45:54;;;;;;;43.95;21.83;;;9.30;93.40;;;;;;5098790;28;20214;-83
2021/11/30 09:48:21;;;;;;;50.33;23.15;;;9.40;93.30;;;;;;5080164;28;20245;-83
2021/11/30 09:50:47;;;;;;;50.08;20.65;;;9.40;93.10;;;;;;5098457;28;20187;-83
2021/11/30 09:53:15;;;;;;;42.60;21.90;;;9.30;93.10;;;;;;5079826;28;20712;-83
2021/11/30 09:55:43;;;;;;;43.30;21.63;;;9.30;93.00;;;;;;5080285;28;20212;-83
2021/11/30 09:58:10;;;;;;;40.80;20.70;;;9.40;93.00;;;;;;5079885;28;20172;-82
2021/11/30 10:00:36;;;;;;;43.35;20.75;;;9.40;92.80;;;;;;5079321;28;20248;-83
2021/11/30 10:03:03;;;;;;;41.47;18.92;;;9.30;92.80;;;;;;5080855;28;20267;-83
2021/11/30 10:05:30;;;;;;;39.63;18.73;;;9.40;92.90;;;;;;5117231;28;20203;-83
2021/11/30 10:08:00;;;;;;;43.40;19.90;;;9.40;92.80;;;;;;5117160;28;20224;-83
2021/11/30 10:10:32;;;;;;;36.50;19.13;;;9.50;92.90;;;;;;5116918;28;20178;-83
2021/11/30 10:13:04;;;;;;;37.05;19.77;;;9.40;92.80;;;;;;5088776;28;20289;-83
2021/11/30 10:15:50;;;;;;;40.60;18.88;;;9.40;92.90;;;;;;5078212;28;20234;-83
2021/11/30 10:18:17;;;;;;;46.78;20.13;;;9.40;93.80;;;;;;5078118;28;20171;-83
2021/11/30 10:20:44;;;;;;;43.90;17.65;;;9.30;93.20;;;;;;5077756;28;20183;-81
2021/11/30 10:23:11;;;;;;;37.75;17.77;;;9.40;93.30;;;;;;5096094;28;20171;-82
2021/11/30 10:25:40;;;;;;;35.85;16.90;;;9.50;93.30;;;;;;5095227;28;20204;-81
2021/11/30 10:28:12;;;;;;;39.55;18.63;;;9.50;93.20;;;;;;5095378;28;20175;-81
2021/11/30 10:30:42;;;;;;;38.33;16.75;;;9.50;93.20;;;;;;5096554;28;20183;-80
2021/11/30 10:33:23;;;;;;;37.53;18.80;;;9.50;93.20;;;;;;5097889;28;20178;-82
2021/11/30 10:35:57;;;;;;;32.25;18.20;;;9.60;93.10;;;;;;5078289;28;20184;-82
2021/11/30 10:38:49;;;;;;;39.70;18.40;;;9.50;93.90;;;;;;5077559;28;20672;-80
2021/11/30 10:41:21;;;;;;;38.88;18.60;;;9.50;93.20;;;;;;5077763;28;20227;-81
2021/11/30 10:43:57;;;;;;;50.45;21.27;;;9.60;93.10;;;;;;5075184;28;20203;-81
2021/11/30 10:46:29;;;;;;;46.13;20.63;;;9.60;93.00;;;;;;5076442;28;20234;-81
2021/11/30 10:48:56;;;;;;;55.97;20.67;;;9.60;92.90;;;;;;5076075;28;20282;-80
2021/11/30 10:51:22;;;;;;;50.75;21.35;;;9.60;92.90;;;;;;5075871;28;20187;-81
2021/11/30 10:53:50;;;;;;;50.90;19.70;;;9.60;92.70;;;;;;5075650;28;20206;-82
2021/11/30 10:56:19;;;;;;;50.35;21.63;;;9.60;92.70;;;;;;5097024;28;20172;-81
2021/11/30 10:58:45;;;;;;;52.75;21.45;;;9.60;92.60;;;;;;5096835;28;20171;-80
2021/11/30 11:01:14;;;;;;;58.60;20.92;;;9.50;92.80;;;;;;5078666;28;20219;-83
2021/11/30 11:03:40;;;;;;;50.92;24.23;;;9.50;93.00;;;;;;5085554;28;20178;-83
2021/11/30 11:08:55;;;;;;;43.17;20.92;;;9.50;93.30;;;;;;5116277;28;20211;-80
2021/11/30 11:11:44;;;;;;;50.22;21.27;;;9.60;93.20;;;;;;5080610;28;20229;-80
2021/11/30 11:14:30;;;;;;;53.80;24.08;;;9.60;93.20;;;;;;5076451;28;20246;-80
2021/11/30 11:17:06;;;;;;;44.50;19.92;;;9.60;93.30;;;;;;5076754;28;20207;-79
2021/11/30 11:19:43;;;;;;;60.88;21.27;;;9.60;93.20;;;;;;5078235;28;20212;-80
2021/11/30 11:22:18;;;;;;;41.30;21.48;;;9.70;93.30;;;;;;5077401;28;20203;-80
2021/11/30 11:24:48;;;;;;;54.97;23.25;;;9.70;93.20;;;;;;5077850;28;20281;-81
2021/11/30 11:27:15;;;;;;;46.03;22.58;;;9.70;93.20;;;;;;5078471;28;20176;-81
2021/11/30 11:29:42;;;;;;;64.38;24.83;;;9.70;93.30;;;;;;5097549;28;20172;-81
2021/11/30 11:32:09;;;;;;;43.88;24.05;;;9.70;93.30;;;;;;5098940;28;20172;-81
2021/11/30 11:34:36;;;;;;;54.05;23.77;;;9.80;93.20;;;;;;5082234;28;20220;-82
2021/11/30 11:37:09;;;;;;;45.58;23.27;;;9.80;93.10;;;;;;5101653;28;20519;-81
2021/11/30 11:39:35;;;;;;;49.63;22.58;;;9.80;93.20;;;;;;5083956;28;20180;-82
2021/11/30 11:42:05;;;;;;;51.78;23.50;;;9.80;93.20;;;;;;5083407;28;20180;-83
2021/11/30 11:44:31;;;;;;;47.60;21.65;;;9.80;93.30;;;;;;5082545;28;20252;-84
2021/11/30 11:47:09;;;;;;;49.90;22.83;;;9.70;93.30;;;;;;5082904;28;20183;-85
2021/11/30 11:49:42;;;;;;;40.60;21.35;;;9.90;93.40;;;;;;5101962;28;20583;-85
2021/11/30 11:52:22;;;;;;;44.05;20.65;;;9.80;93.30;;;;;;5082511;28;20180;-85
2021/11/30 11:55:05;;;;;;;40.85;20.25;;;9.80;93.20;;;;;;5082070;28;20222;-85
2021/11/30 11:57:32;;;;;;;46.95;18.98;;;9.90;93.20;;;;;;5099810;28;20264;-85
2021/11/30 12:00:28;;;;;;;36.28;19.25;;;10.00;93.20;;;;;;5064342;28;20237;-82
2021/11/30 12:03:00;;;;;;;38.95;20.08;;;10.00;93.10;;;;;;5102316;28;20514;-83
2021/11/30 12:05:40;;;;;;;45.15;20.42;;;10.10;93.10;;;;;;5064391;28;20583;-81
2021/11/30 12:08:17;;;;;;;42.40;19.30;;;10.10;93.00;;;;;;5082052;28;20549;-82
2021/11/30 12:10:43;;;;;;;45.08;18.48;;;10.10;93.60;;;;;;5080997;28;20187;-82
2021/11/30 12:13:17;;;;;;;43.53;18.90;;;10.10;92.90;;;;;;5081175;28;20172;-83
2021/11/30 12:16:00;;;;;;;44.17;18.05;;;10.10;92.80;;;;;;5101384;28;20450;-83
2021/11/30 12:18:40;;;;;;;45.70;19.10;;;10.10;92.90;;;;;;5083372;28;20183;-84
2021/11/30 12:21:23;;;;;;;42.58;18.13;;;10.20;92.80;;;;;;5101565;28;20163;-84
2021/11/30 12:23:51;;;;;;;52.88;18.27;;;10.10;92.70;;;;;;5101504;28;20257;-84
2021/11/30 12:26:41;;;;;;;43.20;18.63;;;10.10;92.80;;;;;;5082729;28;20215;-84
2021/11/30 12:29:29;;;;;;;39.53;17.20;;;10.10;92.80;;;;;;5084313;28;20176;-84
2021/11/30 12:31:56;;;;;;;43.22;18.50;;;10.10;92.80;;;;;;5100865;28;20187;-84
2021/11/30 12:34:37;;;;;;;42.50;17.42;;;10.10;92.90;;;;;;5101287;28;20195;-84
2021/11/30 12:37:17;;;;;;;38.10;16.33;;;10.20;93.00;;;;;;5062381;28;20213;-84
2021/11/30 12:40:08;;;;;;;46.72;18.40;;;10.10;93.00;;;;;;5069159;28;20229;-84
2021/11/30 12:42:40;;;;;;;42.05;17.77;;;10.10;93.10;;;;;;5082721;28;20176;-84
2021/11/30 12:45:44;;;;;;;39.90;15.95;;;10.20;93.10;;;;;;5077809;28;20674;-84
2021/11/30 12:48:32;;;;;;;42.25;18.50;;;10.30;93.00;;;;;;5080088;28;20246;-85
2021/11/30 12:51:34;;;;;;;39.20;17.25;;;10.20;92.80;;;;;;5078998;28;20183;-84
2021/11/30 12:54:03;;;;;;;39.05;16.42;;;10.30;92.90;;;;;;5079143;28;20191;-85
2021/11/30 12:57:00;;;;;;;50.40;17.45;;;10.30;93.00;;;;;;5079853;28;20184;-85
2021/11/30 12:59:39;;;;;;;40.83;18.45;;;10.30;92.90;;;;;;5047370;28;20671;-84
2021/11/30 13:02:16;;;;;;;49.20;17.95;;;10.20;93.00;;;;;;5060020;28;20181;-83
2021/11/30 13:04:42;;;;;;;33.72;18.10;;;10.30;93.10;;;;;;5077892;28;20305;-84
2021/11/30 13:07:12;;;;;;;45.13;18.37;;;10.20;93.00;;;;;;5078521;28;20664;-85
2021/11/30 13:09:44;;;;;;;44.03;18.80;;;10.20;93.00;;;;;;5060322;28;20902;-85